Terminal Aerodrome Forecast
Issued by NWS Charleston, WV

Current Version | Previous Version | Graphics & Text | Print | Product List | Glossary On
Versions: 1 2 3 4 5 6 7 8 9 10 11 12 13 14 15 16 17 18 19 20 21 22 23 24
000
FTUS41 KRLX 271740
TAFCRW
TAF
KCRW 271740Z 2718/2818 23007KT P6SM BKN028 OVC045
     FM272000 25005KT P6SM VCTS BKN035CB
     FM272200 25006KT P6SM BKN040
      TEMPO 2722/2801 2SM TSRA OVC040CB
     FM280100 24006KT P6SM VCTS BKN050CB
     FM280300 00000KT P6SM BKN060
     FM280600 VRB03KT P6SM BKN025
     FM281100 VRB03KT P6SM BKN015
     FM281600 20005KT P6SM OVC060=

USA.gov is the U.S. government's official web portal to all federal, state and local government web resources and services.